sensor_id;sensor_type;location;lat;lon;timestamp;pressure;altitude;pressure_sealevel;temperature;humidity
38289;BME280;24092;53.370;-6.588;2023-02-22T00:00:41;100354.26;;;0.35;100.00
38289;BME280;24092;53.370;-6.588;2023-02-22T00:03:10;100353.58;;;0.97;100.00
38289;BME280;24092;53.370;-6.588;2023-02-22T00:05:38;100358.19;;;1.61;100.00
38289;BME280;24092;53.370;-6.588;2023-02-22T00:08:06;100364.71;;;2.17;100.00
38289;BME280;24092;53.370;-6.588;2023-02-22T00:10:34;100365.96;;;0.39;100.00
38289;BME280;24092;53.370;-6.588;2023-02-22T00:13:00;100368.22;;;-0.93;100.00
38289;BME280;24092;53.370;-6.588;2023-02-22T00:15:28;100371.08;;;1.68;100.00
38289;BME280;24092;53.370;-6.588;2023-02-22T00:17:55;100374.82;;;1.26;100.00
38289;BME280;24092;53.370;-6.588;2023-02-22T00:20:22;100380.08;;;2.15;100.00
38289;BME280;24092;53.370;-6.588;2023-02-22T00:22:50;100386.06;;;1.27;100.00
38289;BME280;24092;53.370;-6.588;2023-02-22T00:25:18;100394.92;;;1.82;100.00
38289;BME280;24092;53.370;-6.588;2023-02-22T00:27:47;100401.09;;;1.48;100.00
38289;BME280;24092;53.370;-6.588;2023-02-22T00:30:15;100404.47;;;0.62;100.00
38289;BME280;24092;53.370;-6.588;2023-02-22T00:32:43;100408.84;;;1.82;100.00
38289;BME280;24092;53.370;-6.588;2023-02-22T00:35:10;100413.58;;;1.10;100.00
38289;BME280;24092;53.370;-6.588;2023-02-22T00:37:37;100411.93;;;1.32;100.00
38289;BME280;24092;53.370;-6.588;2023-02-22T00:40:05;100413.98;;;0.90;100.00
38289;BME280;24092;53.370;-6.588;2023-02-22T00:42:32;100413.15;;;1.99;100.00
38289;BME280;24092;53.370;-6.588;2023-02-22T00:44:59;100415.04;;;0.97;100.00
38289;BME280;24092;53.370;-6.588;2023-02-22T00:47:26;100418.48;;;1.48;100.00
38289;BME280;24092;53.370;-6.588;2023-02-22T00:49:53;100416.57;;;0.48;100.00
38289;BME280;24092;53.370;-6.588;2023-02-22T00:52:20;100414.42;;;1.04;100.00
38289;BME280;24092;53.370;-6.588;2023-02-22T00:54:47;100422.77;;;2.22;100.00
38289;BME280;24092;53.370;-6.588;2023-02-22T00:57:14;100419.64;;;2.94;100.00
38289;BME280;24092;53.370;-6.588;2023-02-22T00:59:42;100419.12;;;1.57;100.00
38289;BME280;24092;53.370;-6.588;2023-02-22T01:02:09;100423.34;;;2.10;100.00
38289;BME280;24092;53.370;-6.588;2023-02-22T01:04:36;100427.20;;;3.00;100.00
38289;BME280;24092;53.370;-6.588;2023-02-22T01:07:03;100429.90;;;3.98;100.00
38289;BME280;24092;53.370;-6.588;2023-02-22T01:09:30;100435.34;;;3.84;100.00
38289;BME280;24092;53.370;-6.588;2023-02-22T01:11:57;100432.62;;;3.81;100.00
38289;BME280;24092;53.370;-6.588;2023-02-22T01:14:25;100437.26;;;2.70;100.00
38289;BME280;24092;53.370;-6.588;2023-02-22T01:16:53;100440.13;;;3.34;100.00
38289;BME280;24092;53.370;-6.588;2023-02-22T01:19:21;100441.89;;;3.27;100.00
38289;BME280;24092;53.370;-6.588;2023-02-22T01:21:49;100441.02;;;3.39;100.00
38289;BME280;24092;53.370;-6.588;2023-02-22T01:24:17;100437.55;;;3.50;100.00
38289;BME280;24092;53.370;-6.588;2023-02-22T01:26:49;100433.41;;;3.33;100.00
38289;BME280;24092;53.370;-6.588;2023-02-22T01:29:18;100437.97;;;3.78;100.00
38289;BME280;24092;53.370;-6.588;2023-02-22T01:31:50;100438.00;;;3.33;100.00
38289;BME280;24092;53.370;-6.588;2023-02-22T01:34:18;100440.45;;;3.93;100.00
38289;BME280;24092;53.370;-6.588;2023-02-22T01:36:45;100442.02;;;3.51;100.00
38289;BME280;24092;53.370;-6.588;2023-02-22T01:39:13;100441.86;;;3.62;100.00
38289;BME280;24092;53.370;-6.588;2023-02-22T01:41:40;100444.23;;;3.35;100.00
38289;BME280;24092;53.370;-6.588;2023-02-22T01:44:27;100449.17;;;3.43;100.00
38289;BME280;24092;53.370;-6.588;2023-02-22T01:46:56;100445.85;;;3.10;100.00
38289;BME280;24092;53.370;-6.588;2023-02-22T01:49:25;100445.42;;;3.48;100.00
38289;BME280;24092;53.370;-6.588;2023-02-22T01:51:56;100446.09;;;3.26;100.00
38289;BME280;24092;53.370;-6.588;2023-02-22T01:54:29;100451.03;;;2.98;100.00
38289;BME280;24092;53.370;-6.588;2023-02-22T01:57:02;100455.06;;;2.73;100.00
38289;BME280;24092;53.370;-6.588;2023-02-22T01:59:34;100458.09;;;3.00;100.00
38289;BME280;24092;53.370;-6.588;2023-02-22T02:02:02;100463.57;;;2.96;100.00
38289;BME280;24092;53.370;-6.588;2023-02-22T02:04:30;100463.18;;;2.94;100.00
38289;BME280;24092;53.370;-6.588;2023-02-22T02:07:01;100461.87;;;2.17;100.00
38289;BME280;24092;53.370;-6.588;2023-02-22T02:09:34;100462.43;;;2.65;100.00
38289;BME280;24092;53.370;-6.588;2023-02-22T02:12:03;100464.82;;;2.62;100.00
38289;BME280;24092;53.370;-6.588;2023-02-22T02:14:31;100466.82;;;2.17;100.00
38289;BME280;24092;53.370;-6.588;2023-02-22T02:16:59;100468.81;;;2.08;100.00
38289;BME280;24092;53.370;-6.588;2023-02-22T02:19:32;100474.76;;;1.98;100.00
38289;BME280;24092;53.370;-6.588;2023-02-22T02:22:18;100475.85;;;1.60;100.00
38289;BME280;24092;53.370;-6.588;2023-02-22T02:25:37;100477.78;;;1.99;100.00
38289;BME280;24092;53.370;-6.588;2023-02-22T02:30:36;100483.10;;;3.67;100.00
38289;BME280;24092;53.370;-6.588;2023-02-22T02:33:11;100487.60;;;1.44;100.00
38289;BME280;24092;53.370;-6.588;2023-02-22T02:35:49;100486.11;;;1.75;100.00
38289;BME280;24092;53.370;-6.588;2023-02-22T02:38:30;100490.95;;;1.73;100.00
38289;BME280;24092;53.370;-6.588;2023-02-22T02:41:05;100492.41;;;1.81;100.00
38289;BME280;24092;53.370;-6.588;2023-02-22T02:43:39;100487.42;;;1.84;100.00
38289;BME280;24092;53.370;-6.588;2023-02-22T02:46:11;100494.06;;;1.10;100.00
38289;BME280;24092;53.370;-6.588;2023-02-22T02:48:44;100496.60;;;2.12;100.00
38289;BME280;24092;53.370;-6.588;2023-02-22T02:51:12;100499.91;;;1.50;100.00
38289;BME280;24092;53.370;-6.588;2023-02-22T02:53:44;100499.53;;;1.45;100.00
38289;BME280;24092;53.370;-6.588;2023-02-22T02:56:13;100495.65;;;1.90;100.00
38289;BME280;24092;53.370;-6.588;2023-02-22T02:58:46;100495.51;;;1.73;100.00
38289;BME280;24092;53.370;-6.588;2023-02-22T03:01:18;100500.49;;;1.89;100.00
38289;BME280;24092;53.370;-6.588;2023-02-22T03:03:56;100504.37;;;1.35;100.00
38289;BME280;24092;53.370;-6.588;2023-02-22T03:06:43;100500.69;;;2.08;100.00
38289;BME280;24092;53.370;-6.588;2023-02-22T03:09:26;100505.32;;;2.37;100.00
38289;BME280;24092;53.370;-6.588;2023-02-22T03:12:06;100507.03;;;1.57;100.00
38289;BME280;24092;53.370;-6.588;2023-02-22T03:14:48;100508.25;;;2.00;100.00
38289;BME280;24092;53.370;-6.588;2023-02-22T03:17:23;100506.75;;;1.80;100.00
38289;BME280;24092;53.370;-6.588;2023-02-22T03:19:58;100507.88;;;1.71;100.00
38289;BME280;24092;53.370;-6.588;2023-02-22T03:22:31;100511.40;;;2.00;100.00
38289;BME280;24092;53.370;-6.588;2023-02-22T03:25:06;100513.51;;;2.68;100.00
38289;BME280;24092;53.370;-6.588;2023-02-22T03:27:37;100513.04;;;2.28;100.00
38289;BME280;24092;53.370;-6.588;2023-02-22T03:30:10;100512.95;;;2.05;100.00
38289;BME280;24092;53.370;-6.588;2023-02-22T03:32:43;100515.17;;;2.07;100.00
38289;BME280;24092;53.370;-6.588;2023-02-22T03:35:17;100510.07;;;1.71;100.00
38289;BME280;24092;53.370;-6.588;2023-02-22T03:37:49;100517.25;;;1.26;100.00
38289;BME280;24092;53.370;-6.588;2023-02-22T03:40:35;100514.73;;;1.03;100.00
38289;BME280;24092;53.370;-6.588;2023-02-22T03:43:06;100515.71;;;1.42;100.00
38289;BME280;24092;53.370;-6.588;2023-02-22T03:45:36;100516.23;;;1.33;100.00
38289;BME280;24092;53.370;-6.588;2023-02-22T03:48:13;100523.82;;;0.44;100.00
38289;BME280;24092;53.370;-6.588;2023-02-22T03:50:43;100525.09;;;0.84;100.00
38289;BME280;24092;53.370;-6.588;2023-02-22T03:53:10;100526.87;;;1.00;100.00
38289;BME280;24092;53.370;-6.588;2023-02-22T03:55:37;100531.43;;;1.80;100.00
38289;BME280;24092;53.370;-6.588;2023-02-22T03:58:09;100529.92;;;0.26;100.00
38289;BME280;24092;53.370;-6.588;2023-02-22T04:00:37;100530.86;;;0.56;100.00
38289;BME280;24092;53.370;-6.588;2023-02-22T04:03:05;100535.36;;;0.79;100.00
38289;BME280;24092;53.370;-6.588;2023-02-22T04:05:32;100533.26;;;1.02;100.00
38289;BME280;24092;53.370;-6.588;2023-02-22T04:07:59;100541.02;;;1.01;100.00
38289;BME280;24092;53.370;-6.588;2023-02-22T04:10:26;100536.56;;;1.26;100.00
38289;BME280;24092;53.370;-6.588;2023-02-22T04:12:53;100540.11;;;1.65;100.00
38289;BME280;24092;53.370;-6.588;2023-02-22T04:15:22;100535.77;;;1.34;100.00
38289;BME280;24092;53.370;-6.588;2023-02-22T04:17:50;100530.39;;;1.65;100.00
38289;BME280;24092;53.370;-6.588;2023-02-22T04:20:18;100537.24;;;0.65;100.00
38289;BME280;24092;53.370;-6.588;2023-02-22T04:22:46;100541.54;;;1.89;100.00
38289;BME280;24092;53.370;-6.588;2023-02-22T04:25:13;100544.03;;;0.75;100.00
38289;BME280;24092;53.370;-6.588;2023-02-22T04:27:41;100544.94;;;1.07;100.00
38289;BME280;24092;53.370;-6.588;2023-02-22T04:30:09;100549.03;;;2.18;100.00
38289;BME280;24092;53.370;-6.588;2023-02-22T04:32:37;100552.18;;;1.60;100.00
38289;BME280;24092;53.370;-6.588;2023-02-22T04:35:04;100555.64;;;1.56;100.00
38289;BME280;24092;53.370;-6.588;2023-02-22T04:37:32;100563.74;;;1.42;100.00
38289;BME280;24092;53.370;-6.588;2023-02-22T04:39:59;100562.00;;;-0.79;100.00
38289;BME280;24092;53.370;-6.588;2023-02-22T04:42:26;100564.34;;;1.00;100.00
38289;BME280;24092;53.370;-6.588;2023-02-22T04:44:53;100563.70;;;1.33;100.00
38289;BME280;24092;53.370;-6.588;2023-02-22T04:47:20;100572.08;;;1.50;100.00
38289;BME280;24092;53.370;-6.588;2023-02-22T04:49:47;100577.29;;;0.98;100.00
38289;BME280;24092;53.370;-6.588;2023-02-22T04:52:14;100576.53;;;0.46;100.00
38289;BME280;24092;53.370;-6.588;2023-02-22T04:54:42;100582.50;;;1.31;100.00
38289;BME280;24092;53.370;-6.588;2023-02-22T04:57:09;100583.07;;;-0.12;100.00
38289;BME280;24092;53.370;-6.588;2023-02-22T04:59:36;100583.30;;;1.34;100.00
38289;BME280;24092;53.370;-6.588;2023-02-22T05:02:03;100588.91;;;-0.81;100.00
38289;BME280;24092;53.370;-6.588;2023-02-22T05:04:30;100594.40;;;1.13;100.00
38289;BME280;24092;53.370;-6.588;2023-02-22T05:06:57;100598.34;;;0.63;100.00
38289;BME280;24092;53.370;-6.588;2023-02-22T05:09:24;100605.84;;;0.63;100.00
38289;BME280;24092;53.370;-6.588;2023-02-22T05:11:52;100601.11;;;0.86;100.00
38289;BME280;24092;53.370;-6.588;2023-02-22T05:14:19;100607.40;;;0.44;100.00
38289;BME280;24092;53.370;-6.588;2023-02-22T05:16:47;100608.62;;;-0.50;100.00
38289;BME280;24092;53.370;-6.588;2023-02-22T05:19:14;100615.09;;;1.69;100.00
38289;BME280;24092;53.370;-6.588;2023-02-22T05:21:41;100613.93;;;0.07;100.00
38289;BME280;24092;53.370;-6.588;2023-02-22T05:24:08;100617.17;;;1.07;100.00
38289;BME280;24092;53.370;-6.588;2023-02-22T05:26:35;100620.17;;;0.56;100.00
38289;BME280;24092;53.370;-6.588;2023-02-22T05:29:03;100620.93;;;2.27;100.00
38289;BME280;24092;53.370;-6.588;2023-02-22T05:31:30;100624.07;;;1.50;100.00
38289;BME280;24092;53.370;-6.588;2023-02-22T05:33:57;100630.58;;;0.81;100.00
38289;BME280;24092;53.370;-6.588;2023-02-22T05:36:24;100634.52;;;1.32;100.00
38289;BME280;24092;53.370;-6.588;2023-02-22T05:38:51;100634.68;;;1.38;100.00
38289;BME280;24092;53.370;-6.588;2023-02-22T05:41:18;100637.69;;;0.72;100.00
38289;BME280;24092;53.370;-6.588;2023-02-22T05:43:45;100645.32;;;1.00;100.00
38289;BME280;24092;53.370;-6.588;2023-02-22T05:46:13;100643.53;;;1.19;100.00
38289;BME280;24092;53.370;-6.588;2023-02-22T05:48:40;100643.41;;;0.35;100.00
38289;BME280;24092;53.370;-6.588;2023-02-22T05:51:07;100646.30;;;1.07;100.00
38289;BME280;24092;53.370;-6.588;2023-02-22T05:53:35;100649.88;;;0.66;100.00
38289;BME280;24092;53.370;-6.588;2023-02-22T05:56:03;100651.15;;;0.57;100.00
38289;BME280;24092;53.370;-6.588;2023-02-22T05:58:31;100656.46;;;1.63;100.00
38289;BME280;24092;53.370;-6.588;2023-02-22T06:00:59;100657.78;;;1.81;100.00
38289;BME280;24092;53.370;-6.588;2023-02-22T06:03:26;100661.48;;;1.75;100.00
38289;BME280;24092;53.370;-6.588;2023-02-22T06:05:53;100660.23;;;1.19;100.00
38289;BME280;24092;53.370;-6.588;2023-02-22T06:08:20;100658.36;;;1.87;100.00
38289;BME280;24092;53.370;-6.588;2023-02-22T06:10:47;100664.01;;;1.88;100.00
38289;BME280;24092;53.370;-6.588;2023-02-22T06:13:14;100672.99;;;0.83;100.00
38289;BME280;24092;53.370;-6.588;2023-02-22T06:15:41;100674.88;;;1.19;100.00
38289;BME280;24092;53.370;-6.588;2023-02-22T06:18:09;100677.61;;;1.09;100.00
38289;BME280;24092;53.370;-6.588;2023-02-22T06:20:36;100681.95;;;0.71;100.00
38289;BME280;24092;53.370;-6.588;2023-02-22T06:23:03;100678.67;;;-0.05;100.00
38289;BME280;24092;53.370;-6.588;2023-02-22T06:25:30;100682.45;;;0.61;100.00
38289;BME280;24092;53.370;-6.588;2023-02-22T06:27:58;100684.88;;;0.56;100.00
38289;BME280;24092;53.370;-6.588;2023-02-22T06:30:27;100686.94;;;1.34;100.00
38289;BME280;24092;53.370;-6.588;2023-02-22T06:32:54;100688.02;;;1.14;100.00
38289;BME280;24092;53.370;-6.588;2023-02-22T06:35:22;100691.30;;;0.24;100.00
38289;BME280;24092;53.370;-6.588;2023-02-22T06:37:49;100696.61;;;1.33;100.00
38289;BME280;24092;53.370;-6.588;2023-02-22T06:40:16;100700.80;;;1.45;100.00
38289;BME280;24092;53.370;-6.588;2023-02-22T06:42:43;100694.64;;;1.56;100.00
38289;BME280;24092;53.370;-6.588;2023-02-22T06:45:13;100700.06;;;1.50;100.00
38289;BME280;24092;53.370;-6.588;2023-02-22T06:47:40;100700.45;;;1.98;100.00
38289;BME280;24092;53.370;-6.588;2023-02-22T06:50:17;100704.40;;;2.09;100.00
38289;BME280;24092;53.370;-6.588;2023-02-22T06:52:45;100710.86;;;2.01;100.00
38289;BME280;24092;53.370;-6.588;2023-02-22T06:55:16;100716.95;;;1.90;100.00
38289;BME280;24092;53.370;-6.588;2023-02-22T06:57:42;100722.04;;;2.34;100.00
38289;BME280;24092;53.370;-6.588;2023-02-22T07:00:11;100726.37;;;2.56;100.00
38289;BME280;24092;53.370;-6.588;2023-02-22T07:02:39;100728.30;;;2.38;100.00
38289;BME280;24092;53.370;-6.588;2023-02-22T07:05:06;100732.13;;;2.19;100.00
38289;BME280;24092;53.370;-6.588;2023-02-22T07:07:33;100733.88;;;2.11;100.00
38289;BME280;24092;53.370;-6.588;2023-02-22T07:10:00;100732.30;;;1.82;100.00
38289;BME280;24092;53.370;-6.588;2023-02-22T07:12:27;100741.38;;;2.59;100.00
38289;BME280;24092;53.370;-6.588;2023-02-22T07:14:54;100742.74;;;2.30;100.00
38289;BME280;24092;53.370;-6.588;2023-02-22T07:17:21;100743.08;;;1.67;100.00
38289;BME280;24092;53.370;-6.588;2023-02-22T07:19:48;100746.46;;;1.35;100.00
38289;BME280;24092;53.370;-6.588;2023-02-22T07:22:16;100753.53;;;1.27;100.00
38289;BME280;24092;53.370;-6.588;2023-02-22T07:24:43;100755.33;;;1.09;100.00
38289;BME280;24092;53.370;-6.588;2023-02-22T07:27:10;100758.12;;;1.33;100.00
38289;BME280;24092;53.370;-6.588;2023-02-22T07:29:37;100763.80;;;0.45;100.00
38289;BME280;24092;53.370;-6.588;2023-02-22T07:32:04;100761.07;;;0.45;100.00
38289;BME280;24092;53.370;-6.588;2023-02-22T07:34:32;100762.46;;;0.50;100.00
38289;BME280;24092;53.370;-6.588;2023-02-22T07:36:59;100761.10;;;0.81;100.00
38289;BME280;24092;53.370;-6.588;2023-02-22T07:39:26;100765.30;;;0.37;100.00
38289;BME280;24092;53.370;-6.588;2023-02-22T07:41:53;100768.13;;;0.73;100.00
38289;BME280;24092;53.370;-6.588;2023-02-22T07:44:20;100777.59;;;0.74;100.00
38289;BME280;24092;53.370;-6.588;2023-02-22T07:46:48;100783.00;;;0.66;100.00
38289;BME280;24092;53.370;-6.588;2023-02-22T07:49:15;100784.94;;;-0.17;100.00
38289;BME280;24092;53.370;-6.588;2023-02-22T07:51:42;100788.56;;;0.43;100.00
38289;BME280;24092;53.370;-6.588;2023-02-22T07:54:09;100797.43;;;0.05;100.00
38289;BME280;24092;53.370;-6.588;2023-02-22T07:56:36;100799.38;;;0.17;100.00
38289;BME280;24092;53.370;-6.588;2023-02-22T07:59:09;100795.02;;;-0.24;100.00
38289;BME280;24092;53.370;-6.588;2023-02-22T08:01:36;100794.92;;;-0.62;100.00
38289;BME280;24092;53.370;-6.588;2023-02-22T08:04:04;100792.10;;;-0.98;100.00
38289;BME280;24092;53.370;-6.588;2023-02-22T08:06:31;100795.46;;;-0.95;100.00
38289;BME280;24092;53.370;-6.588;2023-02-22T08:08:58;100799.99;;;-1.07;100.00
38289;BME280;24092;53.370;-6.588;2023-02-22T08:11:26;100799.78;;;-0.49;100.00
38289;BME280;24092;53.370;-6.588;2023-02-22T08:13:53;100807.94;;;-1.37;100.00
38289;BME280;24092;53.370;-6.588;2023-02-22T08:16:20;100804.98;;;-1.16;100.00
38289;BME280;24092;53.370;-6.588;2023-02-22T08:18:47;100799.20;;;-1.13;100.00
38289;BME280;24092;53.370;-6.588;2023-02-22T08:21:16;100791.89;;;-0.74;100.00
38289;BME280;24092;53.370;-6.588;2023-02-22T08:23:43;100785.54;;;-0.79;100.00
38289;BME280;24092;53.370;-6.588;2023-02-22T08:26:11;100790.38;;;-0.10;100.00
38289;BME280;24092;53.370;-6.588;2023-02-22T08:28:38;100796.46;;;-0.57;100.00
38289;BME280;24092;53.370;-6.588;2023-02-22T08:31:05;100800.04;;;-0.76;100.00
38289;BME280;24092;53.370;-6.588;2023-02-22T08:33:32;100808.13;;;-0.28;100.00
38289;BME280;24092;53.370;-6.588;2023-02-22T08:36:00;100805.80;;;-0.11;100.00
38289;BME280;24092;53.370;-6.588;2023-02-22T08:38:29;100804.95;;;0.14;100.00
38289;BME280;24092;53.370;-6.588;2023-02-22T08:40:56;100800.73;;;-0.20;100.00
38289;BME280;24092;53.370;-6.588;2023-02-22T08:43:24;100794.34;;;-0.26;100.00
38289;BME280;24092;53.370;-6.588;2023-02-22T08:45:51;100792.83;;;-0.11;100.00
38289;BME280;24092;53.370;-6.588;2023-02-22T08:48:19;100791.38;;;0.10;100.00
38289;BME280;24092;53.370;-6.588;2023-02-22T08:50:45;100787.52;;;-0.53;100.00
38289;BME280;24092;53.370;-6.588;2023-02-22T08:53:14;100789.44;;;-0.17;100.00
38289;BME280;24092;53.370;-6.588;2023-02-22T08:55:42;100788.78;;;-0.49;100.00
38289;BME280;24092;53.370;-6.588;2023-02-22T08:58:10;100789.52;;;-0.20;100.00
38289;BME280;24092;53.370;-6.588;2023-02-22T09:00:39;100787.47;;;-0.02;100.00
38289;BME280;24092;53.370;-6.588;2023-02-22T09:03:09;100790.67;;;-0.04;100.00
38289;BME280;24092;53.370;-6.588;2023-02-22T09:05:36;100793.56;;;0.09;100.00
38289;BME280;24092;53.370;-6.588;2023-02-22T09:08:04;100800.61;;;0.20;100.00
38289;BME280;24092;53.370;-6.588;2023-02-22T09:10:33;100806.22;;;0.04;100.00
38289;BME280;24092;53.370;-6.588;2023-02-22T09:13:01;100812.06;;;0.04;100.00
38289;BME280;24092;53.370;-6.588;2023-02-22T09:15:28;100819.50;;;0.81;100.00
38289;BME280;24092;53.370;-6.588;2023-02-22T09:17:56;100822.54;;;0.11;100.00
38289;BME280;24092;53.370;-6.588;2023-02-22T09:20:23;100829.59;;;0.40;100.00
38289;BME280;24092;53.370;-6.588;2023-02-22T09:22:51;100834.16;;;0.28;100.00
38289;BME280;24092;53.370;-6.588;2023-02-22T09:25:20;100837.14;;;-0.02;100.00
38289;BME280;24092;53.370;-6.588;2023-02-22T09:27:48;100839.07;;;0.46;100.00
38289;BME280;24092;53.370;-6.588;2023-02-22T09:30:20;100839.22;;;-0.09;100.00
38289;BME280;24092;53.370;-6.588;2023-02-22T09:32:50;100843.92;;;0.02;100.00
38289;BME280;24092;53.370;-6.588;2023-02-22T09:35:18;100846.03;;;1.03;100.00
38289;BME280;24092;53.370;-6.588;2023-02-22T09:37:45;100849.17;;;1.14;100.00
38289;BME280;24092;53.370;-6.588;2023-02-22T09:40:15;100854.48;;;0.92;100.00
38289;BME280;24092;53.370;-6.588;2023-02-22T09:42:46;100851.30;;;1.27;100.00
38289;BME280;24092;53.370;-6.588;2023-02-22T09:45:19;100853.60;;;0.89;100.00
38289;BME280;24092;53.370;-6.588;2023-02-22T09:47:52;100850.28;;;-0.86;100.00
38289;BME280;24092;53.370;-6.588;2023-02-22T09:50:24;100852.84;;;-0.19;100.00
38289;BME280;24092;53.370;-6.588;2023-02-22T09:52:55;100858.11;;;1.06;100.00
38289;BME280;24092;53.370;-6.588;2023-02-22T09:55:30;100860.36;;;0.25;100.00
38289;BME280;24092;53.370;-6.588;2023-02-22T09:58:02;100860.46;;;-0.71;100.00
38289;BME280;24092;53.370;-6.588;2023-02-22T10:00:31;100862.76;;;0.59;100.00
38289;BME280;24092;53.370;-6.588;2023-02-22T10:03:19;100856.76;;;-1.11;100.00
38289;BME280;24092;53.370;-6.588;2023-02-22T10:05:53;100865.87;;;0.24;100.00
38289;BME280;24092;53.370;-6.588;2023-02-22T10:08:26;100866.14;;;0.04;100.00
38289;BME280;24092;53.370;-6.588;2023-02-22T10:11:05;100872.29;;;1.02;100.00
38289;BME280;24092;53.370;-6.588;2023-02-22T10:13:41;100870.75;;;-0.15;100.00
38289;BME280;24092;53.370;-6.588;2023-02-22T10:16:19;100877.76;;;1.58;100.00
38289;BME280;24092;53.370;-6.588;2023-02-22T10:18:59;100882.34;;;0.03;100.00
38289;BME280;24092;53.370;-6.588;2023-02-22T10:21:38;100886.30;;;-0.23;100.00
38289;BME280;24092;53.370;-6.588;2023-02-22T10:24:14;100890.02;;;0.64;100.00
38289;BME280;24092;53.370;-6.588;2023-02-22T10:26:45;100890.64;;;0.43;100.00
38289;BME280;24092;53.370;-6.588;2023-02-22T10:29:17;100887.66;;;0.69;100.00
38289;BME280;24092;53.370;-6.588;2023-02-22T10:31:47;100892.73;;;0.97;100.00
38289;BME280;24092;53.370;-6.588;2023-02-22T10:34:21;100885.79;;;1.26;100.00
38289;BME280;24092;53.370;-6.588;2023-02-22T10:36:53;100887.91;;;1.25;100.00
38289;BME280;24092;53.370;-6.588;2023-02-22T10:39:28;100890.38;;;1.44;100.00
38289;BME280;24092;53.370;-6.588;2023-02-22T10:41:57;100899.67;;;0.55;100.00
38289;BME280;24092;53.370;-6.588;2023-02-22T10:44:26;100899.36;;;0.59;100.00
38289;BME280;24092;53.370;-6.588;2023-02-22T10:46:53;100905.79;;;1.42;100.00
38289;BME280;24092;53.370;-6.588;2023-02-22T10:49:22;100898.25;;;0.94;100.00
38289;BME280;24092;53.370;-6.588;2023-02-22T10:51:58;100906.38;;;0.74;100.00
38289;BME280;24092;53.370;-6.588;2023-02-22T10:54:29;100907.85;;;1.09;100.00
38289;BME280;24092;53.370;-6.588;2023-02-22T10:56:58;100908.29;;;0.59;100.00
38289;BME280;24092;53.370;-6.588;2023-02-22T10:59:27;100904.35;;;2.10;100.00
38289;BME280;24092;53.370;-6.588;2023-02-22T11:01:56;100903.85;;;2.04;100.00
38289;BME280;24092;53.370;-6.588;2023-02-22T11:04:24;100907.21;;;-0.63;100.00
38289;BME280;24092;53.370;-6.588;2023-02-22T11:07:07;100908.98;;;1.52;100.00
38289;BME280;24092;53.370;-6.588;2023-02-22T11:09:47;100906.62;;;1.49;100.00
38289;BME280;24092;53.370;-6.588;2023-02-22T11:12:18;100907.14;;;2.51;100.00
38289;BME280;24092;53.370;-6.588;2023-02-22T11:14:45;100907.54;;;1.52;100.00
38289;BME280;24092;53.370;-6.588;2023-02-22T11:17:18;100909.57;;;1.65;100.00
38289;BME280;24092;53.370;-6.588;2023-02-22T11:19:48;100921.94;;;-0.56;100.00
38289;BME280;24092;53.370;-6.588;2023-02-22T11:22:21;100924.42;;;0.09;100.00
38289;BME280;24092;53.370;-6.588;2023-02-22T11:24:51;100924.72;;;-0.43;100.00
38289;BME280;24092;53.370;-6.588;2023-02-22T11:27:24;100932.66;;;1.20;100.00
38289;BME280;24092;53.370;-6.588;2023-02-22T11:29:53;100931.62;;;1.51;100.00
38289;BME280;24092;53.370;-6.588;2023-02-22T11:32:22;100931.52;;;1.56;100.00
38289;BME280;24092;53.370;-6.588;2023-02-22T11:34:50;100931.11;;;0.28;100.00
38289;BME280;24092;53.370;-6.588;2023-02-22T11:37:27;100929.13;;;2.02;100.00
38289;BME280;24092;53.370;-6.588;2023-02-22T11:40:09;100933.83;;;3.02;100.00
38289;BME280;24092;53.370;-6.588;2023-02-22T11:42:38;100932.22;;;1.92;100.00
38289;BME280;24092;53.370;-6.588;2023-02-22T11:45:11;100934.91;;;2.66;100.00
38289;BME280;24092;53.370;-6.588;2023-02-22T11:47:50;100934.42;;;2.24;100.00
38289;BME280;24092;53.370;-6.588;2023-02-22T11:50:24;100936.29;;;2.95;100.00
38289;BME280;24092;53.370;-6.588;2023-02-22T11:53:03;100939.28;;;3.03;100.00
38289;BME280;24092;53.370;-6.588;2023-02-22T11:55:37;100936.49;;;3.08;100.00
38289;BME280;24092;53.370;-6.588;2023-02-22T11:58:19;100938.42;;;3.14;100.00
38289;BME280;24092;53.370;-6.588;2023-02-22T12:00:56;100940.86;;;1.76;100.00
38289;BME280;24092;53.370;-6.588;2023-02-22T12:03:40;100943.84;;;2.98;100.00
38289;BME280;24092;53.370;-6.588;2023-02-22T12:06:21;100945.35;;;2.81;100.00
38289;BME280;24092;53.370;-6.588;2023-02-22T12:08:59;100946.03;;;2.95;100.00
38289;BME280;24092;53.370;-6.588;2023-02-22T12:11:36;100949.99;;;4.23;100.00
38289;BME280;24092;53.370;-6.588;2023-02-22T12:14:18;100954.31;;;3.48;100.00
38289;BME280;24092;53.370;-6.588;2023-02-22T12:17:08;100956.80;;;3.87;100.00
38289;BME280;24092;53.370;-6.588;2023-02-22T12:19:39;100963.42;;;2.36;100.00
38289;BME280;24092;53.370;-6.588;2023-02-22T12:22:11;100964.60;;;3.20;100.00
38289;BME280;24092;53.370;-6.588;2023-02-22T12:24:41;100962.61;;;1.37;100.00
38289;BME280;24092;53.370;-6.588;2023-02-22T12:27:14;100966.80;;;0.97;100.00
38289;BME280;24092;53.370;-6.588;2023-02-22T12:29:46;100972.38;;;1.38;100.00
38289;BME280;24092;53.370;-6.588;2023-02-22T12:32:22;100971.00;;;-0.15;100.00
38289;BME280;24092;53.370;-6.588;2023-02-22T12:34:54;100973.45;;;2.81;100.00
38289;BME280;24092;53.370;-6.588;2023-02-22T12:37:27;100973.71;;;1.94;100.00
38289;BME280;24092;53.370;-6.588;2023-02-22T12:40:00;100978.03;;;2.26;100.00
38289;BME280;24092;53.370;-6.588;2023-02-22T12:42:35;100977.37;;;1.96;100.00
38289;BME280;24092;53.370;-6.588;2023-02-22T12:45:19;100983.29;;;1.43;100.00
38289;BME280;24092;53.370;-6.588;2023-02-22T12:47:53;100984.80;;;1.54;100.00
38289;BME280;24092;53.370;-6.588;2023-02-22T12:50:27;100982.50;;;0.81;100.00
38289;BME280;24092;53.370;-6.588;2023-02-22T12:52:58;100985.53;;;0.51;100.00
38289;BME280;24092;53.370;-6.588;2023-02-22T12:55:33;100983.77;;;3.17;100.00